sensor_id;sensor_type;location;lat;lon;timestamp;P1;durP1;ratioP1;P2;durP2;ratioP2
64684;SDS011;51109;47.414;18.954;2022-08-03T00:00:05;2.67;;;2.47;;
64684;SDS011;51109;47.414;18.954;2022-08-03T00:02:31;3.55;;;2.55;;
64684;SDS011;51109;47.414;18.954;2022-08-03T00:04:57;3.88;;;2.47;;
64684;SDS011;51109;47.414;18.954;2022-08-03T00:07:23;4.57;;;2.90;;
64684;SDS011;51109;47.414;18.954;2022-08-03T00:09:49;3.10;;;2.63;;
64684;SDS011;51109;47.414;18.954;2022-08-03T00:12:15;4.18;;;2.92;;
64684;SDS011;51109;47.414;18.954;2022-08-03T00:14:41;3.00;;;2.67;;
64684;SDS011;51109;47.414;18.954;2022-08-03T00:17:07;2.58;;;2.40;;
64684;SDS011;51109;47.414;18.954;2022-08-03T00:19:33;3.22;;;2.85;;
64684;SDS011;51109;47.414;18.954;2022-08-03T00:21:59;4.43;;;2.90;;
64684;SDS011;51109;47.414;18.954;2022-08-03T00:24:25;4.10;;;2.92;;
64684;SDS011;51109;47.414;18.954;2022-08-03T00:26:51;5.65;;;3.35;;
64684;SDS011;51109;47.414;18.954;2022-08-03T00:29:17;4.85;;;3.40;;
64684;SDS011;51109;47.414;18.954;2022-08-03T00:31:42;5.25;;;3.40;;
64684;SDS011;51109;47.414;18.954;2022-08-03T00:34:08;4.43;;;4.03;;
64684;SDS011;51109;47.414;18.954;2022-08-03T00:36:34;4.40;;;4.00;;
64684;SDS011;51109;47.414;18.954;2022-08-03T00:39:00;4.38;;;3.95;;
64684;SDS011;51109;47.414;18.954;2022-08-03T00:41:26;3.88;;;3.55;;
64684;SDS011;51109;47.414;18.954;2022-08-03T00:43:52;6.35;;;3.85;;
64684;SDS011;51109;47.414;18.954;2022-08-03T00:46:17;6.10;;;4.30;;
64684;SDS011;51109;47.414;18.954;2022-08-03T00:48:46;5.68;;;4.30;;
64684;SDS011;51109;47.414;18.954;2022-08-03T00:51:13;6.13;;;4.18;;
64684;SDS011;51109;47.414;18.954;2022-08-03T00:53:39;6.40;;;4.43;;
64684;SDS011;51109;47.414;18.954;2022-08-03T00:56:05;7.22;;;4.40;;
64684;SDS011;51109;47.414;18.954;2022-08-03T00:58:31;5.80;;;4.50;;
64684;SDS011;51109;47.414;18.954;2022-08-03T01:00:57;4.88;;;4.38;;
64684;SDS011;51109;47.414;18.954;2022-08-03T01:03:23;5.28;;;4.78;;
64684;SDS011;51109;47.414;18.954;2022-08-03T01:08:47;5.28;;;4.78;;
64684;SDS011;51109;47.414;18.954;2022-08-03T01:14:14;8.50;;;4.80;;
64684;SDS011;51109;47.414;18.954;2022-08-03T01:16:52;6.93;;;5.22;;
64684;SDS011;51109;47.414;18.954;2022-08-03T01:22:22;4.75;;;4.32;;
64684;SDS011;51109;47.414;18.954;2022-08-03T01:30:43;5.38;;;4.88;;
64684;SDS011;51109;47.414;18.954;2022-08-03T01:33:21;7.38;;;5.22;;
64684;SDS011;51109;47.414;18.954;2022-08-03T01:35:59;7.47;;;5.13;;
64684;SDS011;51109;47.414;18.954;2022-08-03T01:38:33;7.15;;;5.45;;
64684;SDS011;51109;47.414;18.954;2022-08-03T01:41:07;5.45;;;5.05;;
64684;SDS011;51109;47.414;18.954;2022-08-03T01:43:38;6.55;;;5.13;;
64684;SDS011;51109;47.414;18.954;2022-08-03T01:46:07;6.35;;;5.20;;
64684;SDS011;51109;47.414;18.954;2022-08-03T01:48:35;5.85;;;5.30;;
64684;SDS011;51109;47.414;18.954;2022-08-03T01:51:05;10.13;;;5.18;;
64684;SDS011;51109;47.414;18.954;2022-08-03T01:53:33;8.45;;;6.00;;
64684;SDS011;51109;47.414;18.954;2022-08-03T01:56:00;6.28;;;5.10;;
64684;SDS011;51109;47.414;18.954;2022-08-03T01:58:28;5.35;;;4.85;;
64684;SDS011;51109;47.414;18.954;2022-08-03T02:00:56;9.57;;;5.57;;
64684;SDS011;51109;47.414;18.954;2022-08-03T02:03:25;6.80;;;5.53;;
64684;SDS011;51109;47.414;18.954;2022-08-03T02:05:54;6.90;;;5.78;;
64684;SDS011;51109;47.414;18.954;2022-08-03T02:08:22;6.53;;;5.78;;
64684;SDS011;51109;47.414;18.954;2022-08-03T02:10:50;8.25;;;6.03;;
64684;SDS011;51109;47.414;18.954;2022-08-03T02:13:18;6.68;;;5.75;;
64684;SDS011;51109;47.414;18.954;2022-08-03T02:15:46;7.53;;;6.25;;
64684;SDS011;51109;47.414;18.954;2022-08-03T02:18:13;7.45;;;6.68;;
64684;SDS011;51109;47.414;18.954;2022-08-03T02:20:41;6.25;;;5.72;;
64684;SDS011;51109;47.414;18.954;2022-08-03T02:23:09;6.35;;;5.75;;
64684;SDS011;51109;47.414;18.954;2022-08-03T02:25:37;7.88;;;5.85;;
64684;SDS011;51109;47.414;18.954;2022-08-03T02:28:33;6.97;;;6.38;;
64684;SDS011;51109;47.414;18.954;2022-08-03T02:31:02;7.03;;;5.80;;
64684;SDS011;51109;47.414;18.954;2022-08-03T02:33:38;6.55;;;5.85;;
64684;SDS011;51109;47.414;18.954;2022-08-03T02:36:07;7.50;;;6.13;;
64684;SDS011;51109;47.414;18.954;2022-08-03T02:38:37;6.70;;;6.10;;
64684;SDS011;51109;47.414;18.954;2022-08-03T02:41:08;8.18;;;6.32;;
64684;SDS011;51109;47.414;18.954;2022-08-03T02:43:47;6.35;;;5.78;;
64684;SDS011;51109;47.414;18.954;2022-08-03T02:46:17;6.20;;;5.70;;
64684;SDS011;51109;47.414;18.954;2022-08-03T02:48:45;7.22;;;6.43;;
64684;SDS011;51109;47.414;18.954;2022-08-03T02:51:13;7.90;;;6.40;;
64684;SDS011;51109;47.414;18.954;2022-08-03T02:53:44;6.70;;;5.85;;
64684;SDS011;51109;47.414;18.954;2022-08-03T02:56:12;8.13;;;5.90;;
64684;SDS011;51109;47.414;18.954;2022-08-03T02:58:41;11.68;;;6.68;;
64684;SDS011;51109;47.414;18.954;2022-08-03T03:01:09;10.98;;;6.63;;
64684;SDS011;51109;47.414;18.954;2022-08-03T03:03:38;11.90;;;6.65;;
64684;SDS011;51109;47.414;18.954;2022-08-03T03:06:06;9.00;;;6.50;;
64684;SDS011;51109;47.414;18.954;2022-08-03T03:08:33;12.60;;;6.53;;
64684;SDS011;51109;47.414;18.954;2022-08-03T03:11:01;8.20;;;6.35;;
64684;SDS011;51109;47.414;18.954;2022-08-03T03:13:28;11.75;;;7.20;;
64684;SDS011;51109;47.414;18.954;2022-08-03T03:15:55;7.97;;;6.50;;
64684;SDS011;51109;47.414;18.954;2022-08-03T03:18:23;9.35;;;6.68;;
64684;SDS011;51109;47.414;18.954;2022-08-03T03:20:51;7.60;;;6.35;;
64684;SDS011;51109;47.414;18.954;2022-08-03T03:23:19;11.13;;;7.07;;
64684;SDS011;51109;47.414;18.954;2022-08-03T03:25:46;10.32;;;6.97;;
64684;SDS011;51109;47.414;18.954;2022-08-03T03:28:13;7.57;;;6.85;;
64684;SDS011;51109;47.414;18.954;2022-08-03T03:30:40;8.82;;;6.55;;
64684;SDS011;51109;47.414;18.954;2022-08-03T03:33:06;11.20;;;6.45;;
64684;SDS011;51109;47.414;18.954;2022-08-03T03:35:32;8.15;;;6.70;;
64684;SDS011;51109;47.414;18.954;2022-08-03T03:37:58;10.30;;;7.07;;
64684;SDS011;51109;47.414;18.954;2022-08-03T03:40:25;9.13;;;6.32;;
64684;SDS011;51109;47.414;18.954;2022-08-03T03:42:52;9.90;;;6.80;;
64684;SDS011;51109;47.414;18.954;2022-08-03T03:45:18;8.70;;;7.00;;
64684;SDS011;51109;47.414;18.954;2022-08-03T03:47:44;7.50;;;6.72;;
64684;SDS011;51109;47.414;18.954;2022-08-03T03:50:11;10.98;;;7.03;;
64684;SDS011;51109;47.414;18.954;2022-08-03T03:52:38;9.32;;;7.78;;
64684;SDS011;51109;47.414;18.954;2022-08-03T03:55:04;8.65;;;7.75;;
64684;SDS011;51109;47.414;18.954;2022-08-03T03:57:31;15.23;;;7.80;;
64684;SDS011;51109;47.414;18.954;2022-08-03T03:59:58;7.88;;;6.78;;
64684;SDS011;51109;47.414;18.954;2022-08-03T04:02:24;8.57;;;7.53;;
64684;SDS011;51109;47.414;18.954;2022-08-03T04:04:50;8.68;;;7.40;;
64684;SDS011;51109;47.414;18.954;2022-08-03T04:07:39;8.82;;;7.63;;
64684;SDS011;51109;47.414;18.954;2022-08-03T04:10:42;9.50;;;7.30;;
64684;SDS011;51109;47.414;18.954;2022-08-03T04:13:30;8.75;;;7.80;;
64684;SDS011;51109;47.414;18.954;2022-08-03T04:16:02;14.90;;;7.40;;
64684;SDS011;51109;47.414;18.954;2022-08-03T04:18:29;10.02;;;8.35;;
64684;SDS011;51109;47.414;18.954;2022-08-03T04:21:02;12.23;;;7.57;;
64684;SDS011;51109;47.414;18.954;2022-08-03T04:23:32;10.15;;;7.00;;
64684;SDS011;51109;47.414;18.954;2022-08-03T04:26:01;11.13;;;7.63;;
64684;SDS011;51109;47.414;18.954;2022-08-03T04:28:28;12.18;;;7.70;;
64684;SDS011;51109;47.414;18.954;2022-08-03T04:30:56;12.25;;;7.65;;
64684;SDS011;51109;47.414;18.954;2022-08-03T04:33:25;11.60;;;7.40;;
64684;SDS011;51109;47.414;18.954;2022-08-03T04:35:53;11.85;;;7.57;;
64684;SDS011;51109;47.414;18.954;2022-08-03T04:38:21;10.18;;;6.38;;
64684;SDS011;51109;47.414;18.954;2022-08-03T04:40:49;9.07;;;7.40;;
64684;SDS011;51109;47.414;18.954;2022-08-03T04:43:17;8.70;;;7.30;;
64684;SDS011;51109;47.414;18.954;2022-08-03T04:45:46;9.40;;;7.00;;
64684;SDS011;51109;47.414;18.954;2022-08-03T04:48:13;12.02;;;6.80;;
64684;SDS011;51109;47.414;18.954;2022-08-03T04:50:40;11.25;;;6.80;;
64684;SDS011;51109;47.414;18.954;2022-08-03T04:53:07;11.55;;;6.60;;
64684;SDS011;51109;47.414;18.954;2022-08-03T04:55:33;10.60;;;7.10;;
64684;SDS011;51109;47.414;18.954;2022-08-03T04:58:00;7.25;;;6.10;;
64684;SDS011;51109;47.414;18.954;2022-08-03T05:00:27;8.63;;;6.57;;
64684;SDS011;51109;47.414;18.954;2022-08-03T05:02:53;10.27;;;6.35;;
64684;SDS011;51109;47.414;18.954;2022-08-03T05:05:20;7.25;;;5.88;;
64684;SDS011;51109;47.414;18.954;2022-08-03T05:07:46;8.25;;;6.13;;
64684;SDS011;51109;47.414;18.954;2022-08-03T05:10:13;7.20;;;6.05;;
64684;SDS011;51109;47.414;18.954;2022-08-03T05:12:39;8.15;;;5.38;;
64684;SDS011;51109;47.414;18.954;2022-08-03T05:15:06;6.25;;;5.28;;
64684;SDS011;51109;47.414;18.954;2022-08-03T05:17:32;7.32;;;5.55;;
64684;SDS011;51109;47.414;18.954;2022-08-03T05:19:58;9.07;;;5.57;;
64684;SDS011;51109;47.414;18.954;2022-08-03T05:22:25;6.20;;;5.63;;
64684;SDS011;51109;47.414;18.954;2022-08-03T05:24:51;7.18;;;5.88;;
64684;SDS011;51109;47.414;18.954;2022-08-03T05:27:17;9.35;;;5.22;;
64684;SDS011;51109;47.414;18.954;2022-08-03T05:29:47;7.93;;;5.53;;
64684;SDS011;51109;47.414;18.954;2022-08-03T05:32:15;7.45;;;5.70;;
64684;SDS011;51109;47.414;18.954;2022-08-03T05:34:41;7.35;;;6.15;;
64684;SDS011;51109;47.414;18.954;2022-08-03T05:37:07;6.63;;;6.05;;
64684;SDS011;51109;47.414;18.954;2022-08-03T05:39:34;6.10;;;5.15;;
64684;SDS011;51109;47.414;18.954;2022-08-03T05:42:00;6.75;;;5.18;;
64684;SDS011;51109;47.414;18.954;2022-08-03T05:44:26;6.63;;;5.95;;
64684;SDS011;51109;47.414;18.954;2022-08-03T05:46:52;7.07;;;5.55;;
64684;SDS011;51109;47.414;18.954;2022-08-03T05:49:19;8.50;;;6.25;;
64684;SDS011;51109;47.414;18.954;2022-08-03T05:51:45;7.15;;;5.55;;
64684;SDS011;51109;47.414;18.954;2022-08-03T05:54:11;7.72;;;5.20;;
64684;SDS011;51109;47.414;18.954;2022-08-03T05:56:37;6.32;;;5.22;;
64684;SDS011;51109;47.414;18.954;2022-08-03T05:59:05;8.63;;;5.47;;
64684;SDS011;51109;47.414;18.954;2022-08-03T06:01:31;6.13;;;5.53;;
64684;SDS011;51109;47.414;18.954;2022-08-03T06:03:57;8.95;;;5.82;;
64684;SDS011;51109;47.414;18.954;2022-08-03T06:06:23;8.27;;;5.60;;
64684;SDS011;51109;47.414;18.954;2022-08-03T06:08:49;6.85;;;5.18;;
64684;SDS011;51109;47.414;18.954;2022-08-03T06:11:15;8.55;;;6.25;;
64684;SDS011;51109;47.414;18.954;2022-08-03T06:13:41;7.05;;;5.88;;
64684;SDS011;51109;47.414;18.954;2022-08-03T06:16:07;7.13;;;5.55;;
64684;SDS011;51109;47.414;18.954;2022-08-03T06:18:34;6.72;;;5.88;;
64684;SDS011;51109;47.414;18.954;2022-08-03T06:21:00;6.90;;;6.30;;
64684;SDS011;51109;47.414;18.954;2022-08-03T06:23:26;5.95;;;5.35;;
64684;SDS011;51109;47.414;18.954;2022-08-03T06:25:52;6.15;;;5.55;;
64684;SDS011;51109;47.414;18.954;2022-08-03T06:28:18;7.70;;;6.30;;
64684;SDS011;51109;47.414;18.954;2022-08-03T06:30:49;6.88;;;6.13;;
64684;SDS011;51109;47.414;18.954;2022-08-03T06:33:15;9.05;;;6.80;;
64684;SDS011;51109;47.414;18.954;2022-08-03T06:35:41;6.53;;;6.00;;
64684;SDS011;51109;47.414;18.954;2022-08-03T06:38:07;9.32;;;7.28;;
64684;SDS011;51109;47.414;18.954;2022-08-03T06:40:34;10.63;;;7.05;;
64684;SDS011;51109;47.414;18.954;2022-08-03T06:43:04;8.73;;;6.50;;
64684;SDS011;51109;47.414;18.954;2022-08-03T06:45:31;7.90;;;6.88;;
64684;SDS011;51109;47.414;18.954;2022-08-03T06:50:27;7.57;;;6.55;;
64684;SDS011;51109;47.414;18.954;2022-08-03T06:52:54;7.18;;;6.10;;
64684;SDS011;51109;47.414;18.954;2022-08-03T06:55:19;6.63;;;5.68;;
64684;SDS011;51109;47.414;18.954;2022-08-03T06:57:46;8.25;;;6.93;;
64684;SDS011;51109;47.414;18.954;2022-08-03T07:00:12;10.25;;;6.72;;
64684;SDS011;51109;47.414;18.954;2022-08-03T07:02:42;7.18;;;5.97;;
64684;SDS011;51109;47.414;18.954;2022-08-03T07:05:08;7.43;;;6.43;;
64684;SDS011;51109;47.414;18.954;2022-08-03T07:07:34;7.90;;;6.22;;
64684;SDS011;51109;47.414;18.954;2022-08-03T07:10:01;6.90;;;6.20;;
64684;SDS011;51109;47.414;18.954;2022-08-03T07:12:28;8.80;;;6.88;;
64684;SDS011;51109;47.414;18.954;2022-08-03T07:14:55;7.53;;;6.82;;
64684;SDS011;51109;47.414;18.954;2022-08-03T07:17:21;6.90;;;6.30;;
64684;SDS011;51109;47.414;18.954;2022-08-03T07:19:49;7.80;;;6.35;;
64684;SDS011;51109;47.414;18.954;2022-08-03T07:22:15;8.48;;;6.50;;
64684;SDS011;51109;47.414;18.954;2022-08-03T07:24:41;10.02;;;5.97;;
64684;SDS011;51109;47.414;18.954;2022-08-03T07:27:08;7.40;;;6.60;;
64684;SDS011;51109;47.414;18.954;2022-08-03T07:29:35;7.43;;;5.97;;
64684;SDS011;51109;47.414;18.954;2022-08-03T07:32:04;8.48;;;6.20;;
64684;SDS011;51109;47.414;18.954;2022-08-03T07:34:30;6.57;;;5.97;;
64684;SDS011;51109;47.414;18.954;2022-08-03T07:36:56;7.78;;;6.63;;
64684;SDS011;51109;47.414;18.954;2022-08-03T07:39:23;6.82;;;6.15;;
64684;SDS011;51109;47.414;18.954;2022-08-03T07:41:49;8.88;;;6.85;;
64684;SDS011;51109;47.414;18.954;2022-08-03T07:44:18;6.85;;;6.18;;
64684;SDS011;51109;47.414;18.954;2022-08-03T07:46:44;8.68;;;6.65;;
64684;SDS011;51109;47.414;18.954;2022-08-03T07:49:10;6.65;;;6.00;;
64684;SDS011;51109;47.414;18.954;2022-08-03T07:51:36;7.38;;;5.95;;
64684;SDS011;51109;47.414;18.954;2022-08-03T07:54:02;8.82;;;6.65;;
64684;SDS011;51109;47.414;18.954;2022-08-03T07:56:29;9.27;;;6.20;;
64684;SDS011;51109;47.414;18.954;2022-08-03T07:58:55;10.43;;;5.90;;
64684;SDS011;51109;47.414;18.954;2022-08-03T08:01:21;8.10;;;5.55;;
64684;SDS011;51109;47.414;18.954;2022-08-03T08:03:48;6.72;;;6.00;;
64684;SDS011;51109;47.414;18.954;2022-08-03T08:06:15;6.47;;;5.88;;
64684;SDS011;51109;47.414;18.954;2022-08-03T08:08:42;6.28;;;5.63;;
64684;SDS011;51109;47.414;18.954;2022-08-03T08:11:08;6.28;;;5.57;;
64684;SDS011;51109;47.414;18.954;2022-08-03T08:13:34;6.50;;;5.95;;
64684;SDS011;51109;47.414;18.954;2022-08-03T08:16:03;6.70;;;5.18;;
64684;SDS011;51109;47.414;18.954;2022-08-03T08:18:29;6.20;;;5.60;;
64684;SDS011;51109;47.414;18.954;2022-08-03T08:20:56;6.47;;;5.53;;
64684;SDS011;51109;47.414;18.954;2022-08-03T08:23:22;6.50;;;5.78;;
64684;SDS011;51109;47.414;18.954;2022-08-03T08:25:56;8.18;;;6.18;;
64684;SDS011;51109;47.414;18.954;2022-08-03T08:28:23;7.82;;;5.43;;
64684;SDS011;51109;47.414;18.954;2022-08-03T08:30:48;7.47;;;5.90;;
64684;SDS011;51109;47.414;18.954;2022-08-03T08:33:14;7.03;;;5.90;;
64684;SDS011;51109;47.414;18.954;2022-08-03T08:35:40;10.38;;;6.07;;
64684;SDS011;51109;47.414;18.954;2022-08-03T08:38:06;6.55;;;5.43;;
64684;SDS011;51109;47.414;18.954;2022-08-03T08:40:32;7.70;;;5.40;;
64684;SDS011;51109;47.414;18.954;2022-08-03T08:42:58;12.57;;;6.70;;
64684;SDS011;51109;47.414;18.954;2022-08-03T08:45:24;5.97;;;5.43;;
64684;SDS011;51109;47.414;18.954;2022-08-03T08:47:51;9.00;;;5.90;;
64684;SDS011;51109;47.414;18.954;2022-08-03T08:50:20;6.30;;;5.07;;
64684;SDS011;51109;47.414;18.954;2022-08-03T08:52:48;5.82;;;5.25;;
64684;SDS011;51109;47.414;18.954;2022-08-03T08:55:18;7.47;;;5.53;;
64684;SDS011;51109;47.414;18.954;2022-08-03T08:57:47;5.55;;;5.05;;
64684;SDS011;51109;47.414;18.954;2022-08-03T09:00:34;5.03;;;4.60;;
64684;SDS011;51109;47.414;18.954;2022-08-03T09:03:00;7.53;;;4.57;;
64684;SDS011;51109;47.414;18.954;2022-08-03T09:05:26;7.80;;;4.93;;
64684;SDS011;51109;47.414;18.954;2022-08-03T09:07:56;5.93;;;5.10;;
64684;SDS011;51109;47.414;18.954;2022-08-03T09:10:22;5.28;;;4.32;;
64684;SDS011;51109;47.414;18.954;2022-08-03T09:12:51;5.10;;;4.70;;
64684;SDS011;51109;47.414;18.954;2022-08-03T09:15:21;4.70;;;4.20;;
64684;SDS011;51109;47.414;18.954;2022-08-03T09:17:58;4.82;;;4.43;;
64684;SDS011;51109;47.414;18.954;2022-08-03T09:20:27;4.55;;;4.15;;
64684;SDS011;51109;47.414;18.954;2022-08-03T09:22:58;5.03;;;4.00;;
64684;SDS011;51109;47.414;18.954;2022-08-03T09:28:12;6.15;;;4.50;;
64684;SDS011;51109;47.414;18.954;2022-08-03T09:30:40;7.78;;;5.38;;
64684;SDS011;51109;47.414;18.954;2022-08-03T09:33:21;6.32;;;5.30;;
64684;SDS011;51109;47.414;18.954;2022-08-03T09:35:48;6.65;;;5.40;;
64684;SDS011;51109;47.414;18.954;2022-08-03T09:40:43;6.97;;;4.75;;
64684;SDS011;51109;47.414;18.954;2022-08-03T09:43:10;5.80;;;4.30;;
64684;SDS011;51109;47.414;18.954;2022-08-03T09:45:37;4.88;;;4.47;;
64684;SDS011;51109;47.414;18.954;2022-08-03T09:48:20;6.80;;;4.55;;
64684;SDS011;51109;47.414;18.954;2022-08-03T09:50:53;6.45;;;3.90;;
64684;SDS011;51109;47.414;18.954;2022-08-03T09:53:21;7.05;;;4.05;;
64684;SDS011;51109;47.414;18.954;2022-08-03T09:55:51;7.72;;;4.20;;
64684;SDS011;51109;47.414;18.954;2022-08-03T09:58:27;5.72;;;4.20;;
64684;SDS011;51109;47.414;18.954;2022-08-03T10:03:32;8.88;;;3.92;;
64684;SDS011;51109;47.414;18.954;2022-08-03T10:08:46;4.50;;;4.10;;
64684;SDS011;51109;47.414;18.954;2022-08-03T10:11:30;4.32;;;3.92;;
64684;SDS011;51109;47.414;18.954;2022-08-03T10:13:57;4.65;;;4.25;;
64684;SDS011;51109;47.414;18.954;2022-08-03T10:16:22;4.85;;;4.43;;
64684;SDS011;51109;47.414;18.954;2022-08-03T10:18:49;6.18;;;5.07;;
64684;SDS011;51109;47.414;18.954;2022-08-03T10:21:16;5.50;;;4.65;;
64684;SDS011;51109;47.414;18.954;2022-08-03T10:23:43;5.95;;;5.00;;
64684;SDS011;51109;47.414;18.954;2022-08-03T10:26:12;5.22;;;4.72;;
64684;SDS011;51109;47.414;18.954;2022-08-03T10:28:41;4.82;;;4.53;;
64684;SDS011;51109;47.414;18.954;2022-08-03T10:31:14;5.35;;;4.85;;
64684;SDS011;51109;47.414;18.954;2022-08-03T10:33:43;4.93;;;4.53;;
64684;SDS011;51109;47.414;18.954;2022-08-03T10:36:13;5.63;;;5.13;;
64684;SDS011;51109;47.414;18.954;2022-08-03T10:38:44;6.32;;;5.03;;
64684;SDS011;51109;47.414;18.954;2022-08-03T10:41:17;4.38;;;3.97;;
64684;SDS011;51109;47.414;18.954;2022-08-03T10:46:19;4.55;;;4.20;;
64684;SDS011;51109;47.414;18.954;2022-08-03T10:48:46;4.28;;;3.88;;
64684;SDS011;51109;47.414;18.954;2022-08-03T10:51:13;6.55;;;4.55;;
64684;SDS011;51109;47.414;18.954;2022-08-03T10:53:40;4.55;;;3.90;;
64684;SDS011;51109;47.414;18.954;2022-08-03T11:02:13;6.93;;;4.25;;
64684;SDS011;51109;47.414;18.954;2022-08-03T11:04:39;4.30;;;4.00;;
64684;SDS011;51109;47.414;18.954;2022-08-03T11:09:42;4.30;;;3.90;;
64684;SDS011;51109;47.414;18.954;2022-08-03T11:15:03;5.07;;;4.18;;
64684;SDS011;51109;47.414;18.954;2022-08-03T11:17:31;4.00;;;3.70;;
64684;SDS011;51109;47.414;18.954;2022-08-03T11:20:00;3.47;;;3.25;;
64684;SDS011;51109;47.414;18.954;2022-08-03T11:22:46;6.25;;;3.80;;
64684;SDS011;51109;47.414;18.954;2022-08-03T11:25:15;3.83;;;2.90;;
64684;SDS011;51109;47.414;18.954;2022-08-03T11:27:41;3.15;;;2.95;;
64684;SDS011;51109;47.414;18.954;2022-08-03T11:30:08;4.28;;;2.92;;
64684;SDS011;51109;47.414;18.954;2022-08-03T11:35:08;3.13;;;2.92;;
64684;SDS011;51109;47.414;18.954;2022-08-03T11:42:58;3.85;;;3.47;;
64684;SDS011;51109;47.414;18.954;2022-08-03T11:45:24;3.67;;;3.40;;
64684;SDS011;51109;47.414;18.954;2022-08-03T11:47:54;3.50;;;3.22;;
64684;SDS011;51109;47.414;18.954;2022-08-03T11:50:20;3.60;;;3.30;;
64684;SDS011;51109;47.414;18.954;2022-08-03T11:52:47;4.32;;;3.65;;
64684;SDS011;51109;47.414;18.954;2022-08-03T11:55:14;3.55;;;3.33;;
64684;SDS011;51109;47.414;18.954;2022-08-03T11:57:43;4.07;;;3.28;;
64684;SDS011;51109;47.414;18.954;2022-08-03T12:02:54;4.63;;;4.07;;
64684;SDS011;51109;47.414;18.954;2022-08-03T12:05:31;4.07;;;3.20;;
64684;SDS011;51109;47.414;18.954;2022-08-03T12:08:07;3.78;;;3.47;;
64684;SDS011;51109;47.414;18.954;2022-08-03T12:10:35;5.20;;;3.78;;
64684;SDS011;51109;47.414;18.954;2022-08-03T12:13:02;4.03;;;3.15;;
64684;SDS011;51109;47.414;18.954;2022-08-03T12:15:35;3.42;;;3.13;;
64684;SDS011;51109;47.414;18.954;2022-08-03T12:18:07;3.50;;;3.20;;
64684;SDS011;51109;47.414;18.954;2022-08-03T12:20:39;4.13;;;3.10;;
64684;SDS011;51109;47.414;18.954;2022-08-03T12:23:05;4.05;;;3.00;;
64684;SDS011;51109;47.414;18.954;2022-08-03T12:25:32;6.60;;;3.15;;
64684;SDS011;51109;47.414;18.954;2022-08-03T12:28:31;4.15;;;3.03;;
64684;SDS011;51109;47.414;18.954;2022-08-03T12:30:51;3.83;;;2.92;;
64684;SDS011;51109;47.414;18.954;2022-08-03T12:35:49;3.40;;;3.10;;
64684;SDS011;51109;47.414;18.954;2022-08-03T12:38:27;4.50;;;3.25;;
64684;SDS011;51109;47.414;18.954;2022-08-03T12:40:54;2.70;;;2.50;;
64684;SDS011;51109;47.414;18.954;2022-08-03T12:43:21;3.08;;;2.88;;
64684;SDS011;51109;47.414;18.954;2022-08-03T12:45:47;2.88;;;2.70;;
64684;SDS011;51109;47.414;18.954;2022-08-03T12:48:13;3.00;;;2.80;;
64684;SDS011;51109;47.414;18.954;2022-08-03T12:50:39;5.03;;;3.28;;
64684;SDS011;51109;47.414;18.954;2022-08-03T12:53:06;3.25;;;2.97;;
64684;SDS011;51109;47.414;18.954;2022-08-03T12:55:34;3.60;;;3.30;;
64684;SDS011;51109;47.414;18.954;2022-08-03T12:58:03;6.18;;;3.33;;
64684;SDS011;51109;47.414;18.954;2022-08-03T13:00:30;4.00;;;3.10;;
64684;SDS011;51109;47.414;18.954;2022-08-03T13:03:00;3.83;;;3.00;;
64684;SDS011;51109;47.414;18.954;2022-08-03T13:05:31;4.25;;;2.80;;
64684;SDS011;51109;47.414;18.954;2022-08-03T13:08:16;4.45;;;3.30;;
64684;SDS011;51109;47.414;18.954;2022-08-03T13:10:43;4.90;;;2.72;;
64684;SDS011;51109;47.414;18.954;2022-08-03T13:13:10;3.88;;;3.10;;
64684;SDS011;51109;47.414;18.954;2022-08-03T13:15:36;3.35;;;3.05;;
64684;SDS011;51109;47.414;18.954;2022-08-03T13:18:02;3.78;;;3.38;;
64684;SDS011;51109;47.414;18.954;2022-08-03T13:20:28;3.85;;;3.35;;
64684;SDS011;51109;47.414;18.954;2022-08-03T13:22:54;3.90;;;3.60;;
64684;SDS011;51109;47.414;18.954;2022-08-03T13:25:21;5.38;;;3.80;;
64684;SDS011;51109;47.414;18.954;2022-08-03T13:27:47;4.70;;;3.78;;
64684;SDS011;51109;47.414;18.954;2022-08-03T13:30:13;5.32;;;3.50;;
64684;SDS011;51109;47.414;18.954;2022-08-03T13:32:40;4.22;;;3.83;;
64684;SDS011;51109;47.414;18.954;2022-08-03T13:35:07;3.67;;;3.38;;
64684;SDS011;51109;47.414;18.954;2022-08-03T13:37:33;4.80;;;3.60;;
64684;SDS011;51109;47.414;18.954;2022-08-03T13:40:01;7.03;;;4.20;;
64684;SDS011;51109;47.414;18.954;2022-08-03T13:42:30;7.45;;;3.70;;
64684;SDS011;51109;47.414;18.954;2022-08-03T13:44:58;4.30;;;3.90;;
64684;SDS011;51109;47.414;18.954;2022-08-03T13:47:25;4.00;;;3.70;;
64684;SDS011;51109;47.414;18.954;2022-08-03T13:49:52;5.22;;;3.45;;
64684;SDS011;51109;47.414;18.954;2022-08-03T13:52:18;4.65;;;3.75;;
64684;SDS011;51109;47.414;18.954;2022-08-03T13:54:44;5.15;;;3.55;;
64684;SDS011;51109;47.414;18.954;2022-08-03T13:57:10;4.93;;;3.83;;
64684;SDS011;51109;47.414;18.954;2022-08-03T13:59:37;5.03;;;3.65;;
64684;SDS011;51109;47.414;18.954;2022-08-03T14:02:03;3.63;;;3.33;;
64684;SDS011;51109;47.414;18.954;2022-08-03T14:04:29;4.40;;;3.92;;
64684;SDS011;51109;47.414;18.954;2022-08-03T14:06:55;4.38;;;3.65;;
64684;SDS011;51109;47.414;18.954;2022-08-03T14:09:21;3.83;;;3.47;;
64684;SDS011;51109;47.414;18.954;2022-08-03T14:11:47;4.22;;;3.83;;
64684;SDS011;51109;47.414;18.954;2022-08-03T14:14:13;4.15;;;3.80;;
64684;SDS011;51109;47.414;18.954;2022-08-03T14:16:39;4.05;;;3.75;;
64684;SDS011;51109;47.414;18.954;2022-08-03T14:19:05;4.47;;;3.63;;
64684;SDS011;51109;47.414;18.954;2022-08-03T14:21:31;3.85;;;3.45;;
64684;SDS011;51109;47.414;18.954;2022-08-03T14:23:57;4.93;;;3.22;;
64684;SDS011;51109;47.414;18.954;2022-08-03T14:26:23;3.50;;;3.20;;
64684;SDS011;51109;47.414;18.954;2022-08-03T14:28:49;4.53;;;3.78;;
64684;SDS011;51109;47.414;18.954;2022-08-03T14:31:15;4.03;;;3.53;;
64684;SDS011;51109;47.414;18.954;2022-08-03T14:33:41;4.18;;;3.80;;
64684;SDS011;51109;47.414;18.954;2022-08-03T14:36:07;3.72;;;3.35;;
64684;SDS011;51109;47.414;18.954;2022-08-03T14:38:33;4.45;;;3.70;;
64684;SDS011;51109;47.414;18.954;2022-08-03T14:40:58;6.10;;;3.20;;
64684;SDS011;51109;47.414;18.954;2022-08-03T14:43:24;3.75;;;3.45;;
64684;SDS011;51109;47.414;18.954;2022-08-03T14:45:51;3.35;;;3.08;;
64684;SDS011;51109;47.414;18.954;2022-08-03T14:48:19;3.40;;;3.10;;
64684;SDS011;51109;47.414;18.954;2022-08-03T14:50:46;3.40;;;3.10;;
64684;SDS011;51109;47.414;18.954;2022-08-03T14:53:12;3.72;;;3.42;;
64684;SDS011;51109;47.414;18.954;2022-08-03T14:55:38;5.05;;;3.40;;
64684;SDS011;51109;47.414;18.954;2022-08-03T14:58:04;3.83;;;3.33;;
64684;SDS011;51109;47.414;18.954;2022-08-03T15:00:34;3.17;;;2.92;;
64684;SDS011;51109;47.414;18.954;2022-08-03T15:03:03;3.63;;;3.33;;
64684;SDS011;51109;47.414;18.954;2022-08-03T15:05:29;3.47;;;3.15;;
64684;SDS011;51109;47.414;18.954;2022-08-03T15:07:55;3.47;;;3.17;;
64684;SDS011;51109;47.414;18.954;2022-08-03T15:10:21;3.38;;;3.17;;
64684;SDS011;51109;47.414;18.954;2022-08-03T15:12:47;4.78;;;3.22;;
64684;SDS011;51109;47.414;18.954;2022-08-03T15:15:13;3.88;;;3.58;;
64684;SDS011;51109;47.414;18.954;2022-08-03T15:17:39;3.72;;;2.97;;
64684;SDS011;51109;47.414;18.954;2022-08-03T15:20:06;7.40;;;3.10;;
64684;SDS011;51109;47.414;18.954;2022-08-03T15:22:33;3.58;;;3.03;;
64684;SDS011;51109;47.414;18.954;2022-08-03T15:24:59;4.28;;;3.20;;
64684;SDS011;51109;47.414;18.954;2022-08-03T15:27:29;3.58;;;3.25;;
64684;SDS011;51109;47.414;18.954;2022-08-03T15:29:55;3.65;;;3.35;;
64684;SDS011;51109;47.414;18.954;2022-08-03T15:32:21;3.03;;;2.83;;